Milwaukee, Wisconsin
Current Conditions -  °F | °C
As of 7:52 PM on Wednesday 22 Oct 2014 (Local Time) from KMKE Reporting Station
Few Clouds Few Clouds  
Wind Chill: 38°   Ceiling: Unl
Heat Index: 42°   Visibility: 10mi
Dew Point: 36°   Wind: 7mph
Humidity: 79%   Direction: 130°SE
Pressure: 30.27"   Gusts: NA
Location:  43.04°N, 87.91°W
Report Text: KMKE 230052Z 13006KT 10SM FEW250 06/02 A3027 RMK AO2 SLP257 T00560022
Loading
Personal Weather Stations






























Interactive Weather Map
Tropical Storm Tracking
New forecast layout! Learn more

10-Day Weather Forecast

Advertisements
Track Severe Weather on mobile